createdAt,value
2022-12-13T00:01:55.636Z,6.57
2022-12-13T00:04:24.853Z,7.00
2022-12-13T00:06:53.984Z,8.00
2022-12-13T00:09:21.544Z,7.43
2022-12-13T00:11:49.225Z,7.00
2022-12-13T00:14:16.472Z,5.60
2022-12-13T00:17:45.800Z,7.17
2022-12-13T00:20:12.840Z,7.43
2022-12-13T00:22:39.776Z,8.83
2022-12-13T00:25:06.869Z,7.17
2022-12-13T00:27:33.749Z,6.60
2022-12-13T00:30:00.622Z,6.17
2022-12-13T00:32:27.941Z,8.30
2022-12-13T00:34:54.812Z,7.67
2022-12-13T00:37:21.687Z,6.43
2022-12-13T00:39:48.567Z,6.10
2022-12-13T00:42:15.468Z,5.40
2022-12-13T00:44:42.334Z,4.40
2022-12-13T00:47:10.003Z,6.73
2022-12-13T00:49:36.945Z,5.87
2022-12-13T00:52:03.892Z,6.07
2022-12-13T00:54:30.804Z,6.53
2022-12-13T00:56:57.664Z,5.67
2022-12-13T00:59:24.909Z,5.10
2022-12-13T01:01:53.458Z,7.00
2022-12-13T01:04:21.280Z,4.90
2022-12-13T01:06:49.946Z,5.30
2022-12-13T01:09:27.211Z,5.07
2022-12-13T01:11:59.170Z,5.37
2022-12-13T01:14:26.798Z,7.63
2022-12-13T01:16:55.724Z,6.10
2022-12-13T01:19:28.084Z,4.93
2022-12-13T01:22:01.806Z,4.57
2022-12-13T01:24:30.375Z,7.00
2022-12-13T01:26:58.083Z,7.00
2022-12-13T01:29:26.707Z,4.23
2022-12-13T01:31:54.162Z,5.37
2022-12-13T01:34:26.506Z,7.33
2022-12-13T01:36:57.906Z,5.87
2022-12-13T01:39:27.161Z,6.27
2022-12-13T01:41:59.398Z,6.20
2022-12-13T01:45:03.825Z,6.17
2022-12-13T01:47:41.377Z,6.60
2022-12-13T01:50:18.426Z,5.83
2022-12-13T01:52:46.237Z,5.77
2022-12-13T01:55:14.788Z,6.37
2022-12-13T01:57:45.910Z,5.27
2022-12-13T02:00:14.986Z,5.27
2022-12-13T02:02:42.020Z,4.90
2022-12-13T02:05:23.054Z,12.43
2022-12-13T02:07:51.210Z,6.67
2022-12-13T02:10:18.204Z,5.53
2022-12-13T02:12:45.350Z,4.37
2022-12-13T02:15:17.042Z,6.20
2022-12-13T02:18:09.744Z,4.77
2022-12-13T02:21:06.851Z,5.07
2022-12-13T02:24:09.460Z,6.63
2022-12-13T02:27:01.908Z,6.20
2022-12-13T02:29:58.058Z,5.53
2022-12-13T02:32:57.721Z,5.37
2022-12-13T02:35:44.610Z,5.50
2022-12-13T02:38:40.294Z,6.10
2022-12-13T02:41:18.254Z,7.70
2022-12-13T02:43:49.406Z,7.00
2022-12-13T02:46:21.716Z,6.37
2022-12-13T02:48:51.351Z,7.07
2022-12-13T02:51:19.649Z,8.70
2022-12-13T02:53:46.891Z,9.30
2022-12-13T02:56:14.168Z,7.43
2022-12-13T02:58:49.969Z,9.00
2022-12-13T03:01:41.570Z,8.40
2022-12-13T03:05:06.941Z,11.30
2022-12-13T03:08:08.942Z,13.57
2022-12-13T03:10:57.011Z,8.73
2022-12-13T03:13:48.027Z,10.33
2022-12-13T03:16:26.062Z,12.20
2022-12-13T03:18:58.295Z,9.97
2022-12-13T03:21:25.854Z,7.40
2022-12-13T03:23:52.785Z,9.20
2022-12-13T03:26:26.659Z,10.47
2022-12-13T03:28:54.428Z,8.53
2022-12-13T03:31:21.517Z,8.83
2022-12-13T03:33:48.539Z,9.80
2022-12-13T03:36:16.702Z,11.70
2022-12-13T03:38:44.879Z,9.77
2022-12-13T03:41:15.847Z,8.47
2022-12-13T03:43:43.050Z,8.20
2022-12-13T03:46:10.566Z,9.27
2022-12-13T03:48:37.794Z,11.07
2022-12-13T03:51:05.237Z,9.97
2022-12-13T03:53:34.591Z,15.10
2022-12-13T03:56:05.159Z,10.70
2022-12-13T03:58:36.244Z,11.70
2022-12-13T04:01:12.525Z,14.20
2022-12-13T04:03:43.020Z,10.90
2022-12-13T04:06:10.447Z,10.87
2022-12-13T04:08:39.008Z,9.90
2022-12-13T04:11:25.168Z,11.70
2022-12-13T04:13:53.933Z,14.43
2022-12-13T04:16:21.960Z,11.40
2022-12-13T04:18:48.993Z,12.70
2022-12-13T04:21:16.103Z,11.40
2022-12-13T04:23:42.961Z,12.70
2022-12-13T04:26:10.388Z,14.60
2022-12-13T04:28:37.299Z,11.43
2022-12-13T04:31:04.462Z,10.57
2022-12-13T04:33:32.706Z,13.10
2022-12-13T04:36:00.328Z,12.50
2022-12-13T04:38:27.513Z,11.63
2022-12-13T04:40:54.438Z,11.20
2022-12-13T04:43:21.308Z,12.47
2022-12-13T04:45:48.263Z,10.50
2022-12-13T04:48:30.213Z,12.23
2022-12-13T04:51:01.319Z,10.47
2022-12-13T04:53:29.977Z,11.37
2022-12-13T04:55:56.954Z,10.90
2022-12-13T04:58:23.838Z,11.73
2022-12-13T05:00:50.816Z,10.07
2022-12-13T05:03:17.738Z,11.37
2022-12-13T05:05:44.628Z,11.07
2022-12-13T05:08:11.611Z,9.67
2022-12-13T05:10:38.545Z,12.40
2022-12-13T05:13:06.655Z,10.83
2022-12-13T05:15:34.283Z,29.03
2022-12-13T05:18:09.580Z,11.07
2022-12-13T05:20:39.513Z,13.10
2022-12-13T05:23:06.474Z,14.20
2022-12-13T05:25:34.711Z,12.07
2022-12-13T05:28:08.914Z,14.40
2022-12-13T05:30:48.465Z,11.37
2022-12-13T05:33:15.341Z,10.17
2022-12-13T05:35:42.499Z,10.70
2022-12-13T05:38:09.546Z,15.73
2022-12-13T05:40:36.439Z,12.27
2022-12-13T05:43:03.324Z,10.80
2022-12-13T05:45:48.535Z,9.83
2022-12-13T05:48:15.419Z,12.23
2022-12-13T05:50:52.488Z,12.40
2022-12-13T05:53:37.954Z,13.23
2022-12-13T05:56:05.088Z,11.60
2022-12-13T05:58:35.453Z,15.90
2022-12-13T06:01:08.461Z,12.60
2022-12-13T06:03:36.029Z,15.90
2022-12-13T06:06:04.051Z,14.17
2022-12-13T06:08:31.312Z,15.53
2022-12-13T06:11:11.680Z,13.40
2022-12-13T06:13:44.157Z,16.50
2022-12-13T06:16:23.346Z,14.63
2022-12-13T06:18:59.348Z,14.90
2022-12-13T06:21:43.456Z,13.83
2022-12-13T06:24:14.667Z,14.80
2022-12-13T06:26:41.797Z,11.93
2022-12-13T06:29:08.660Z,12.30
2022-12-13T06:31:35.557Z,13.43
2022-12-13T06:34:14.417Z,14.87
2022-12-13T06:36:43.018Z,14.50
2022-12-13T06:39:09.935Z,18.97
2022-12-13T06:41:37.064Z,11.07
2022-12-13T06:44:04.726Z,11.23
2022-12-13T06:46:31.668Z,11.80
2022-12-13T06:48:58.637Z,12.30
2022-12-13T06:51:33.303Z,15.90
2022-12-13T06:54:04.452Z,12.80
2022-12-13T06:56:31.744Z,11.63
2022-12-13T06:59:01.823Z,17.60
2022-12-13T07:01:36.776Z,12.27
2022-12-13T07:04:28.878Z,17.37
2022-12-13T07:06:52.974Z,14.20
2022-12-13T07:09:19.817Z,14.00
2022-12-13T07:11:51.945Z,11.50
2022-12-13T07:14:19.834Z,16.00
2022-12-13T07:16:46.684Z,13.37
2022-12-13T07:19:23.387Z,12.80
2022-12-13T07:21:52.175Z,15.50
2022-12-13T07:24:19.089Z,15.87
2022-12-13T07:26:46.359Z,13.13
2022-12-13T07:29:13.305Z,12.90
2022-12-13T07:31:49.386Z,15.60
2022-12-13T07:34:16.250Z,15.20
2022-12-13T07:36:43.150Z,13.07
2022-12-13T07:39:10.807Z,12.50
2022-12-13T07:41:37.689Z,12.57
2022-12-13T07:44:05.225Z,18.50
2022-12-13T07:46:33.889Z,15.03
2022-12-13T07:49:05.322Z,13.87
2022-12-13T07:51:35.104Z,19.43
2022-12-13T07:54:07.170Z,15.33
2022-12-13T07:56:35.641Z,13.50
2022-12-13T07:59:02.620Z,13.13
2022-12-13T08:01:35.234Z,11.47
2022-12-13T08:04:03.667Z,15.13
2022-12-13T08:06:34.899Z,12.83
2022-12-13T08:09:02.018Z,14.00
2022-12-13T08:11:28.922Z,16.57
2022-12-13T08:13:55.752Z,15.83
2022-12-13T08:16:28.135Z,13.10
2022-12-13T08:19:02.486Z,12.43
2022-12-13T08:21:57.367Z,13.20
2022-12-13T08:24:30.307Z,12.90
2022-12-13T08:27:02.944Z,16.10
2022-12-13T08:29:34.986Z,15.07
2022-12-13T08:32:10.430Z,16.60
2022-12-13T08:34:37.860Z,22.20
2022-12-13T08:37:05.033Z,15.20
2022-12-13T08:39:37.576Z,13.30
2022-12-13T08:42:19.290Z,16.50
2022-12-13T08:44:48.795Z,11.87
2022-12-13T08:47:23.664Z,15.47
2022-12-13T08:50:03.017Z,15.77
2022-12-13T08:52:40.244Z,16.30
2022-12-13T08:55:14.278Z,16.47
2022-12-13T08:57:42.832Z,16.57
2022-12-13T09:00:14.321Z,14.17
2022-12-13T09:02:41.278Z,15.53
2022-12-13T09:05:10.127Z,18.10
2022-12-13T09:07:39.459Z,16.30
2022-12-13T09:10:25.697Z,20.67
2022-12-13T09:13:01.031Z,14.70
2022-12-13T09:15:33.896Z,17.57
2022-12-13T09:18:04.264Z,22.13
2022-12-13T09:20:41.067Z,28.70
2022-12-13T09:23:14.230Z,21.63
2022-12-13T09:26:05.160Z,21.27
2022-12-13T09:28:35.506Z,19.80
2022-12-13T09:31:07.502Z,21.03
2022-12-13T09:33:40.805Z,21.40
2022-12-13T09:36:11.794Z,25.37
2022-12-13T09:38:39.085Z,23.17
2022-12-13T09:41:29.218Z,30.23
2022-12-13T09:44:06.164Z,32.80
2022-12-13T09:46:54.561Z,35.10
2022-12-13T09:49:39.400Z,28.73
2022-12-13T09:52:21.304Z,23.03
2022-12-13T09:54:55.884Z,18.83
2022-12-13T09:57:33.931Z,22.03
2022-12-13T10:00:13.679Z,21.10
2022-12-13T10:02:49.008Z,24.70
2022-12-13T10:05:35.750Z,20.50
2022-12-13T10:08:15.132Z,23.33
2022-12-13T10:10:43.651Z,24.40
2022-12-13T10:13:39.505Z,20.20
2022-12-13T10:16:37.133Z,23.17
2022-12-13T10:19:29.567Z,24.30
2022-12-13T10:22:01.490Z,21.07
2022-12-13T10:24:49.643Z,22.37
2022-12-13T10:27:42.422Z,23.43
2022-12-13T10:30:16.923Z,26.63
2022-12-13T10:32:57.109Z,27.73
2022-12-13T10:35:37.204Z,31.67
2022-12-13T10:38:31.464Z,28.50
2022-12-13T10:41:00.925Z,27.07
2022-12-13T10:43:32.820Z,22.87
2022-12-13T10:46:03.983Z,27.07
2022-12-13T10:48:38.873Z,25.37
2022-12-13T10:51:20.056Z,30.53
2022-12-13T10:53:54.681Z,33.07
2022-12-13T10:56:33.386Z,27.50
2022-12-13T10:59:18.372Z,28.77
2022-12-13T11:01:45.407Z,32.10
2022-12-13T11:04:33.053Z,34.93
2022-12-13T11:07:22.532Z,30.73
2022-12-13T11:09:52.307Z,33.00
2022-12-13T11:12:26.412Z,31.00
2022-12-13T11:15:03.592Z,38.57
2022-12-13T11:17:46.601Z,37.40
2022-12-13T11:20:23.615Z,35.47
2022-12-13T11:23:04.678Z,39.10
2022-12-13T11:25:40.148Z,37.17
2022-12-13T11:28:31.956Z,33.03
2022-12-13T11:31:20.830Z,32.57
2022-12-13T11:34:02.646Z,37.90
2022-12-13T11:36:55.084Z,36.33
2022-12-13T11:39:32.085Z,34.40
2022-12-13T11:42:21.409Z,42.50
2022-12-13T11:44:58.759Z,37.47
2022-12-13T11:47:39.934Z,34.27
2022-12-13T11:50:34.293Z,36.57
2022-12-13T11:53:29.205Z,39.77
2022-12-13T11:56:28.564Z,40.50
2022-12-13T11:59:40.294Z,43.33
2022-12-13T12:02:36.007Z,38.20
2022-12-13T12:05:25.463Z,43.40
2022-12-13T12:08:31.758Z,35.13
2022-12-13T12:10:50.458Z,39.90
2022-12-13T12:13:24.582Z,42.80
2022-12-13T12:16:23.430Z,39.47
2022-12-13T12:18:51.938Z,42.90
2022-12-13T12:22:12.246Z,36.63
2022-12-13T12:24:57.502Z,44.70
2022-12-13T12:27:55.139Z,39.27
2022-12-13T12:31:13.268Z,37.97
2022-12-13T12:33:55.530Z,35.90
2022-12-13T12:37:06.275Z,40.10
2022-12-13T12:39:41.572Z,41.53
2022-12-13T12:42:44.577Z,36.97
2022-12-13T12:45:57.947Z,33.37
2022-12-13T12:49:27.768Z,37.50
2022-12-13T12:52:46.744Z,35.67
2022-12-13T12:55:58.908Z,35.57
2022-12-13T12:59:06.599Z,35.40
2022-12-13T13:01:59.271Z,32.17
2022-12-13T13:04:42.266Z,35.67
2022-12-13T13:07:29.649Z,35.37
2022-12-13T13:09:58.168Z,39.20
2022-12-13T13:12:44.180Z,28.23
2022-12-13T13:15:32.781Z,36.37
2022-12-13T13:18:00.738Z,32.30
2022-12-13T13:20:29.121Z,26.57
2022-12-13T13:23:31.925Z,30.90
2022-12-13T13:26:15.826Z,28.83
2022-12-13T13:28:42.369Z,30.17
2022-12-13T13:31:10.274Z,27.20
2022-12-13T13:33:50.933Z,22.40
2022-12-13T13:36:46.539Z,29.67
2022-12-13T13:40:01.440Z,37.40
2022-12-13T13:42:32.770Z,29.10
2022-12-13T13:45:18.022Z,23.90
2022-12-13T13:48:15.917Z,29.60
2022-12-13T13:51:09.579Z,25.97
2022-12-13T13:54:06.868Z,28.90
2022-12-13T13:56:36.109Z,25.40
2022-12-13T13:59:54.522Z,29.40
2022-12-13T14:03:00.507Z,23.40
2022-12-13T14:06:11.475Z,25.83
2022-12-13T14:09:41.782Z,29.30
2022-12-13T14:13:02.566Z,28.17
2022-12-13T14:16:21.109Z,26.77
2022-12-13T14:19:18.967Z,25.63
2022-12-13T14:22:04.159Z,30.43
2022-12-13T14:25:15.519Z,28.40
2022-12-13T14:28:14.433Z,30.43
2022-12-13T14:30:48.182Z,25.00
2022-12-13T14:33:25.909Z,26.73
2022-12-13T14:35:59.949Z,25.00
2022-12-13T14:38:30.925Z,27.83
2022-12-13T14:41:01.830Z,29.47
2022-12-13T14:43:34.572Z,27.30
2022-12-13T14:46:05.197Z,25.97
2022-12-13T14:48:49.122Z,24.47
2022-12-13T14:51:38.232Z,25.37
2022-12-13T14:54:07.951Z,25.37
2022-12-13T14:56:35.598Z,30.83
2022-12-13T14:59:12.255Z,24.50
2022-12-13T15:01:40.693Z,22.80
2022-12-13T15:04:30.867Z,26.20
2022-12-13T15:07:11.360Z,25.97
2022-12-13T15:09:42.014Z,22.83
2022-12-13T15:12:25.344Z,25.17
2022-12-13T15:15:00.427Z,25.63
2022-12-13T15:17:39.528Z,31.37
2022-12-13T15:20:28.370Z,24.07
2022-12-13T15:23:30.334Z,26.30
2022-12-13T15:26:28.721Z,28.37
2022-12-13T15:29:00.681Z,22.90
2022-12-13T15:31:28.544Z,29.93
2022-12-13T15:34:00.991Z,26.47
2022-12-13T15:36:29.603Z,26.93
2022-12-13T15:38:56.336Z,27.77
2022-12-13T15:41:28.104Z,24.23
2022-12-13T15:44:14.992Z,26.13
2022-12-13T15:46:46.711Z,24.03
2022-12-13T15:49:32.836Z,22.57
2022-12-13T15:52:14.984Z,27.30
2022-12-13T15:54:43.075Z,24.47
2022-12-13T15:57:24.530Z,25.17
2022-12-13T16:00:30.222Z,24.97
2022-12-13T16:03:08.810Z,25.07
2022-12-13T16:05:42.511Z,30.70
2022-12-13T16:08:28.377Z,22.30
2022-12-13T16:10:55.736Z,24.07
2022-12-13T16:13:33.272Z,25.07
2022-12-13T16:16:39.099Z,24.90
2022-12-13T16:19:18.122Z,24.37
2022-12-13T16:21:45.021Z,27.40
2022-12-13T16:24:12.272Z,23.33
2022-12-13T16:26:46.106Z,29.60
2022-12-13T16:29:16.965Z,25.67
2022-12-13T16:31:44.215Z,28.20
2022-12-13T16:34:11.593Z,26.40
2022-12-13T16:36:38.516Z,30.83
2022-12-13T16:39:07.732Z,26.53
2022-12-13T16:41:41.691Z,28.97
2022-12-13T16:44:12.679Z,28.73
2022-12-13T16:47:12.562Z,29.80
2022-12-13T16:49:30.778Z,30.57
2022-12-13T16:51:57.778Z,28.50
2022-12-13T16:54:25.931Z,33.57
2022-12-13T16:56:54.072Z,30.20
2022-12-13T16:59:24.745Z,35.63
2022-12-13T17:01:52.537Z,29.80
2022-12-13T17:04:24.673Z,27.77
2022-12-13T17:06:54.969Z,31.10
2022-12-13T17:09:23.213Z,29.07
2022-12-13T17:11:50.213Z,32.23
2022-12-13T17:14:17.110Z,42.73
2022-12-13T17:16:44.092Z,33.77
2022-12-13T17:19:14.518Z,28.27
2022-12-13T17:21:41.525Z,33.83
2022-12-13T17:24:08.870Z,30.40
2022-12-13T17:26:35.753Z,36.27
2022-12-13T17:29:02.952Z,30.07
2022-12-13T17:31:35.168Z,32.40
2022-12-13T17:34:03.040Z,27.93
2022-12-13T17:36:31.464Z,33.13
2022-12-13T17:38:58.779Z,33.90
2022-12-13T17:41:25.675Z,36.00
2022-12-13T17:43:52.626Z,37.33
2022-12-13T17:46:19.648Z,30.17
2022-12-13T17:48:46.827Z,44.00
2022-12-13T17:51:14.722Z,30.50
2022-12-13T17:53:43.811Z,29.60
2022-12-13T17:56:15.081Z,39.07
2022-12-13T17:58:43.511Z,37.70
2022-12-13T18:01:23.050Z,36.03
2022-12-13T18:03:53.383Z,38.60
2022-12-13T18:06:20.314Z,40.93
2022-12-13T18:08:47.616Z,34.67
2022-12-13T18:11:32.777Z,31.83
2022-12-13T18:14:01.930Z,33.07
2022-12-13T18:16:36.312Z,34.87
2022-12-13T18:19:11.736Z,35.90
2022-12-13T18:21:39.215Z,31.37
2022-12-13T18:24:07.419Z,31.10
2022-12-13T18:26:34.623Z,34.70
2022-12-13T18:29:02.092Z,31.67
2022-12-13T18:31:29.134Z,30.03
2022-12-13T18:33:56.171Z,28.93
2022-12-13T18:36:25.107Z,30.40
2022-12-13T18:38:52.235Z,33.87
2022-12-13T18:41:22.972Z,26.37
2022-12-13T18:44:02.555Z,29.90
2022-12-13T18:46:32.480Z,31.43
2022-12-13T18:48:59.784Z,40.37
2022-12-13T18:51:27.763Z,37.03
2022-12-13T18:53:55.911Z,31.27
2022-12-13T18:56:23.691Z,29.47
2022-12-13T18:58:51.979Z,31.33
2022-12-13T19:01:19.848Z,34.97
2022-12-13T19:03:48.686Z,39.13
2022-12-13T19:06:25.768Z,37.17
2022-12-13T19:08:56.301Z,31.50
2022-12-13T19:11:26.176Z,40.20
2022-12-13T19:13:53.191Z,94.30
2022-12-13T19:16:22.474Z,65.07
2022-12-13T19:18:49.688Z,38.10
2022-12-13T19:21:19.780Z,33.73
2022-12-13T19:23:53.183Z,31.43
2022-12-13T19:26:24.017Z,29.30
2022-12-13T19:28:51.073Z,28.33
2022-12-13T19:31:18.021Z,33.23
2022-12-13T19:33:45.050Z,34.20
2022-12-13T19:36:12.584Z,39.67
2022-12-13T19:38:40.409Z,35.07
2022-12-13T19:41:09.654Z,29.90
2022-12-13T19:43:36.883Z,29.97
2022-12-13T19:46:04.154Z,35.77
2022-12-13T19:48:31.395Z,26.50
2022-12-13T19:51:00.190Z,29.17
2022-12-13T19:53:28.716Z,24.87
2022-12-13T19:55:56.030Z,28.00
2022-12-13T19:58:23.879Z,26.73
2022-12-13T20:00:51.048Z,31.83
2022-12-13T20:03:18.101Z,29.23
2022-12-13T20:05:45.856Z,30.63
2022-12-13T20:08:12.896Z,30.03
2022-12-13T20:10:39.791Z,34.87
2022-12-13T20:13:06.812Z,32.97
2022-12-13T20:15:33.767Z,27.17
2022-12-13T20:18:00.660Z,33.33
2022-12-13T20:20:47.028Z,28.60
2022-12-13T20:23:15.347Z,32.00
2022-12-13T20:25:42.288Z,31.97
2022-12-13T20:28:15.961Z,32.40
2022-12-13T20:30:43.206Z,31.87
2022-12-13T20:33:10.079Z,35.70
2022-12-13T20:35:54.222Z,28.33
2022-12-13T20:38:24.846Z,40.37
2022-12-13T20:40:51.733Z,32.40
2022-12-13T20:43:18.606Z,39.13
2022-12-13T20:45:45.509Z,29.57
2022-12-13T20:48:12.371Z,38.00
2022-12-13T20:50:39.236Z,39.07
2022-12-13T20:53:06.321Z,30.43
2022-12-13T20:55:35.128Z,32.83
2022-12-13T20:58:02.010Z,29.27
2022-12-13T21:00:29.580Z,48.87
2022-12-13T21:02:56.527Z,32.90
2022-12-13T21:05:23.392Z,36.20
2022-12-13T21:08:08.904Z,28.77
2022-12-13T21:10:35.775Z,33.20
2022-12-13T21:13:02.664Z,33.47
2022-12-13T21:15:29.544Z,36.17
2022-12-13T21:17:56.440Z,32.07
2022-12-13T21:20:23.451Z,35.37
2022-12-13T21:22:50.901Z,42.00
2022-12-13T21:25:17.747Z,27.87
2022-12-13T21:27:44.648Z,27.90
2022-12-13T21:30:15.227Z,30.17
2022-12-13T21:32:42.097Z,32.87
2022-12-13T21:35:09.529Z,35.60
2022-12-13T21:37:39.095Z,35.03
2022-12-13T21:40:06.886Z,37.90
2022-12-13T21:42:33.757Z,34.33
2022-12-13T21:45:02.443Z,34.93
2022-12-13T21:47:29.524Z,40.13
2022-12-13T21:49:56.392Z,33.07
2022-12-13T21:52:23.279Z,33.30
2022-12-13T21:55:03.381Z,32.43
2022-12-13T21:57:56.835Z,41.50
2022-12-13T22:00:23.698Z,30.23
2022-12-13T22:02:50.566Z,31.47
2022-12-13T22:05:17.492Z,30.93
2022-12-13T22:07:44.488Z,36.77
2022-12-13T22:10:15.044Z,33.30
2022-12-13T22:12:41.970Z,35.10
2022-12-13T22:15:14.956Z,34.10
2022-12-13T22:17:43.061Z,29.37
2022-12-13T22:20:13.618Z,36.73
2022-12-13T22:22:42.363Z,38.60
2022-12-13T22:25:09.930Z,31.50
2022-12-13T22:27:36.835Z,35.57
2022-12-13T22:30:04.771Z,42.33
2022-12-13T22:32:32.716Z,34.83
2022-12-13T22:35:00.070Z,39.07
2022-12-13T22:37:27.306Z,37.83
2022-12-13T22:39:54.343Z,33.67
2022-12-13T22:42:21.286Z,34.07
2022-12-13T22:44:48.227Z,35.17
2022-12-13T22:47:15.175Z,27.13
2022-12-13T22:49:42.044Z,35.33
2022-12-13T22:52:09.002Z,40.60
2022-12-13T22:54:35.933Z,31.93
2022-12-13T22:57:02.933Z,34.20
2022-12-13T22:59:29.893Z,30.47
2022-12-13T23:02:02.034Z,29.73
2022-12-13T23:04:31.622Z,30.97
2022-12-13T23:06:58.547Z,28.50
2022-12-13T23:09:25.405Z,29.00
2022-12-13T23:12:11.195Z,29.47
2022-12-13T23:14:38.075Z,31.40
2022-12-13T23:17:05.676Z,29.30
2022-12-13T23:19:50.215Z,29.10
2022-12-13T23:22:22.997Z,26.90
2022-12-13T23:24:51.062Z,26.47
2022-12-13T23:27:20.327Z,29.53
2022-12-13T23:29:47.201Z,27.67
2022-12-13T23:32:14.438Z,27.23
2022-12-13T23:34:41.584Z,25.87
2022-12-13T23:37:08.482Z,25.90
2022-12-13T23:39:35.367Z,22.33
2022-12-13T23:42:02.257Z,30.97
2022-12-13T23:44:29.121Z,20.97
2022-12-13T23:46:56.082Z,26.30
2022-12-13T23:49:22.947Z,22.00
2022-12-13T23:51:49.835Z,26.53
2022-12-13T23:54:19.379Z,25.90
2022-12-13T23:56:47.196Z,20.53
2022-12-13T23:59:14.084Z,20.33
